Time;durP1;ratioP1;P1;durP2;ratioP2;P2;SDS_P1;SDS_P2;PMS_P1;PMS_P2;Temp;Humidity;BMP_temperature;BMP_pressure;BME280_temperature;BME280_humidity;BME280_pressure;Samples;Min_cycle;Max_cycle;Signal;HPM_P1;HPM_P2
2022/05/07 00:00:41;;;;;;;5.00;2.90;;;;;;;13.84;48.83;95098.13;4145597;28;20678;-53
2022/05/07 00:02:43;;;;;;;3.25;2.30;;;;;;;13.85;49.06;95089.25;4145297;28;20104;-53
2022/05/07 00:04:44;;;;;;;6.85;2.70;;;;;;;13.84;48.52;95102.59;4144333;28;20049;-51
2022/05/07 00:06:46;;;;;;;4.97;2.67;;;;;;;13.85;48.50;95099.78;4144041;28;20053;-54
2022/05/07 00:08:48;;;;;;;5.93;2.85;;;;;;;13.86;47.75;95101.41;4143350;28;20588;-53
2022/05/07 00:10:49;;;;;;;7.47;2.63;;;;;;;13.86;47.96;95096.16;4145269;28;20107;-55
2022/05/07 00:12:51;;;;;;;5.00;2.53;;;;;;;13.85;47.80;95093.69;4144810;28;20128;-54
2022/05/07 00:14:54;;;;;;;5.75;2.60;;;;;;;13.80;47.70;95096.84;4144825;28;20099;-54
2022/05/07 00:19:17;;;;;;;10.15;2.75;;;;;;;13.69;48.32;95091.94;4142539;28;20448;-52
2022/05/07 00:21:19;;;;;;;5.50;2.60;;;;;;;13.50;47.91;95086.03;4144693;28;20088;-53
2022/05/07 00:23:21;;;;;;;4.15;2.50;;;;;;;13.51;48.10;95087.69;4143248;28;20057;-52
2022/05/07 00:25:24;;;;;;;7.47;3.42;;;;;;;13.48;47.87;95082.75;4144873;28;20607;-54
2022/05/07 00:27:25;;;;;;;4.10;2.67;;;;;;;13.48;47.99;95084.56;4144774;28;20192;-53
2022/05/07 00:29:27;;;;;;;6.40;2.83;;;;;;;13.52;47.60;95088.50;4144832;28;20272;-51
2022/05/07 00:31:29;;;;;;;4.03;2.40;;;;;;;13.49;47.56;95089.66;4144704;28;20058;-56
2022/05/07 00:33:31;;;;;;;6.03;2.28;;;;;;;13.49;47.13;95081.78;4144164;28;20056;-54
2022/05/07 00:35:32;;;;;;;3.88;2.40;;;;;;;13.42;47.51;95091.34;4144509;28;20450;-52
2022/05/07 00:37:34;;;;;;;8.13;2.72;;;;;;;13.45;47.29;95082.28;4144286;28;20057;-52
2022/05/07 00:39:36;;;;;;;5.45;2.28;;;;;;;13.50;47.19;95085.22;4143104;28;20053;-55
2022/05/07 00:41:39;;;;;;;6.70;2.50;;;;;;;13.40;47.47;95074.03;4144349;28;20049;-51
2022/05/07 00:43:41;;;;;;;7.25;2.63;;;;;;;13.39;46.83;95081.13;4143234;28;20531;-55
2022/05/07 00:45:46;;;;;;;5.63;2.42;;;;;;;13.36;47.06;95080.63;4143761;28;20058;-53
2022/05/07 00:47:48;;;;;;;4.68;2.30;;;;;;;13.43;46.83;95077.19;4140749;28;20065;-52
2022/05/07 00:49:52;;;;;;;6.15;2.50;;;;;;;13.48;46.57;95077.47;4128185;28;20050;-54
2022/05/07 00:51:54;;;;;;;;;;;;;;;13.51;47.14;95077.16;4133759;28;20086;-56
2022/05/07 00:53:55;;;;;;;5.55;2.40;;;;;;;13.52;46.42;95077.97;4142847;28;19925;-53
2022/05/07 00:55:57;;;;;;;7.72;2.55;;;;;;;13.41;45.99;95076.53;4142843;28;20534;-54
2022/05/07 00:57:59;;;;;;;6.15;2.50;;;;;;;13.35;46.63;95077.19;4144022;28;20149;-52
2022/05/07 01:00:03;;;;;;;6.57;2.90;;;;;;;13.33;46.68;95073.91;4140728;28;20053;-52
2022/05/07 01:02:04;;;;;;;5.68;2.80;;;;;;;13.22;46.26;95076.84;4144196;28;20053;-53
2022/05/07 01:04:06;;;;;;;6.22;2.60;;;;;;;13.09;46.48;95083.41;4143660;28;20058;-53
2022/05/07 01:06:09;;;;;;;11.65;2.90;;;;;;;13.09;46.57;95080.78;4142699;28;20053;-53
2022/05/07 01:08:12;;;;;;;3.23;2.50;;;;;;;13.07;46.53;95082.75;4142787;28;20136;-56
2022/05/07 01:10:14;;;;;;;4.63;3.03;;;;;;;13.06;46.21;95077.69;4144330;28;20061;-54
2022/05/07 01:12:16;;;;;;;3.67;2.33;;;;;;;13.06;46.61;95078.50;4142184;28;20049;-55
2022/05/07 01:14:18;;;;;;;5.28;2.08;;;;;;;13.11;46.37;95080.63;4134281;28;20200;-53
2022/05/07 01:16:19;;;;;;;4.03;2.30;;;;;;;13.14;46.26;95088.19;4144050;28;20096;-53
2022/05/07 01:18:21;;;;;;;5.55;2.88;;;;;;;13.14;45.90;95085.56;4138987;28;20132;-54
2022/05/07 01:20:23;;;;;;;6.68;2.20;;;;;;;13.18;46.03;95089.50;4143821;28;20172;-53
2022/05/07 01:22:26;;;;;;;3.22;2.05;;;;;;;13.18;45.89;95091.31;4129850;28;20054;-53
2022/05/07 01:24:28;;;;;;;5.22;2.35;;;;;;;12.99;45.75;95090.69;4124987;28;20488;-54
2022/05/07 01:26:30;;;;;;;4.78;2.40;;;;;;;12.96;45.95;95092.81;4127880;28;20058;-50
2022/05/07 01:28:31;;;;;;;6.10;2.85;;;;;;;12.85;46.08;95086.06;4127803;28;20519;-54
2022/05/07 01:30:33;;;;;;;3.67;2.33;;;;;;;12.79;46.18;95081.44;4127490;28;20057;-54
2022/05/07 01:32:35;;;;;;;5.18;2.17;;;;;;;12.74;46.28;95083.75;4131227;28;20120;-54
2022/05/07 01:34:37;;;;;;;11.05;2.80;;;;;;;12.71;46.38;95084.88;4152452;28;20053;-54
2022/05/07 01:36:39;;;;;;;4.88;2.45;;;;;;;12.75;46.03;95085.38;4160033;28;20115;-50
2022/05/07 01:38:41;;;;;;;3.28;2.10;;;;;;;12.80;46.59;95088.34;4157202;28;20045;-53
2022/05/07 01:40:43;;;;;;;6.97;2.20;;;;;;;12.74;46.16;95089.00;4160244;28;20053;-53
2022/05/07 01:42:45;;;;;;;5.65;2.60;;;;;;;12.73;46.43;95082.09;4150622;28;20760;-52
2022/05/07 01:44:47;;;;;;;4.40;2.28;;;;;;;12.81;46.15;95082.09;4143366;28;20042;-55
2022/05/07 01:49:08;;;;;;;4.07;2.25;;;;;;;12.70;46.77;95081.44;4142950;28;20054;-54
2022/05/07 01:51:11;;;;;;;4.60;2.30;;;;;;;12.76;46.59;95081.78;4143036;28;20521;-55
2022/05/07 01:53:14;;;;;;;5.25;2.60;;;;;;;12.74;46.56;95078.50;4141811;28;20116;-55
2022/05/07 01:55:16;;;;;;;8.88;2.58;;;;;;;12.72;46.55;95064.69;4143432;28;20371;-57
2022/05/07 01:57:17;;;;;;;6.95;2.63;;;;;;;12.69;46.54;95077.19;4141816;28;20061;-54
2022/05/07 01:59:19;;;;;;;5.30;2.35;;;;;;;12.71;47.02;95079.63;4143278;28;20057;-54
2022/05/07 02:01:21;;;;;;;4.55;2.25;;;;;;;12.61;46.97;95079.78;4143267;28;20113;-53
2022/05/07 02:03:23;;;;;;;3.60;2.50;;;;;;;12.63;46.75;95071.75;4142459;28;20208;-54
2022/05/07 02:05:26;;;;;;;8.63;2.35;;;;;;;12.67;46.94;95073.88;4142526;28;20506;-53
2022/05/07 02:07:27;;;;;;;6.97;2.43;;;;;;;12.70;47.37;95078.81;4142886;28;20064;-54
2022/05/07 02:09:29;;;;;;;7.78;2.50;;;;;;;12.70;46.55;95078.81;4141474;28;20053;-58
2022/05/07 02:11:31;;;;;;;6.82;2.67;;;;;;;12.62;47.01;95083.22;4142759;28;20056;-56
2022/05/07 02:13:33;;;;;;;4.78;2.50;;;;;;;12.58;47.38;95079.28;4143005;28;20050;-56
2022/05/07 02:15:35;;;;;;;5.25;2.85;;;;;;;12.50;47.06;95091.44;4143253;28;20136;-55
2022/05/07 02:17:37;;;;;;;5.90;2.72;;;;;;;12.48;47.43;95087.31;4142827;28;20133;-52
2022/05/07 02:19:39;;;;;;;7.30;2.70;;;;;;;12.48;47.35;95079.44;4137332;28;20502;-54
2022/05/07 02:21:40;;;;;;;5.53;2.03;;;;;;;12.50;47.47;95083.53;4134298;28;20528;-53
2022/05/07 02:23:42;;;;;;;6.10;2.22;;;;;;;12.58;47.16;95079.28;4141532;28;20088;-51
2022/05/07 02:25:44;;;;;;;8.45;2.35;;;;;;;12.66;47.30;95085.38;4143024;28;20054;-53
2022/05/07 02:27:45;;;;;;;6.05;2.30;;;;;;;12.70;47.19;95084.06;4143373;28;20061;-54
2022/05/07 02:29:48;;;;;;;4.32;2.30;;;;;;;12.75;47.39;95088.00;4143079;28;20111;-55
2022/05/07 02:32:05;;;;;;;6.20;2.40;;;;;;;12.81;47.02;95090.81;4142662;28;20548;-52
2022/05/07 02:34:07;;;;;;;8.68;2.33;;;;;;;12.80;46.90;95088.34;4141002;28;20094;-51
2022/05/07 02:36:08;;;;;;;3.95;2.33;;;;;;;12.83;46.60;95091.47;4141414;28;20057;-50
2022/05/07 02:38:10;;;;;;;7.07;2.47;;;;;;;12.84;47.09;95094.91;4141152;28;20647;-51
2022/05/07 02:40:12;;;;;;;6.68;2.63;;;;;;;12.86;47.11;95096.41;4142509;28;20069;-53
2022/05/07 02:44:34;;;;;;;4.93;2.20;;;;;;;12.84;46.70;95101.03;4142510;28;20050;-53
2022/05/07 02:46:35;;;;;;;8.98;2.63;;;;;;;12.80;46.75;95096.22;4142639;28;20123;-53
2022/05/07 02:48:37;;;;;;;5.90;2.63;;;;;;;12.82;47.07;95102.13;4141776;28;20144;-47
2022/05/07 02:50:39;;;;;;;6.53;2.53;;;;;;;12.83;47.16;95102.00;4142298;28;20176;-52
2022/05/07 02:52:41;;;;;;;4.32;2.30;;;;;;;12.83;47.08;95109.06;4142508;28;20054;-53
2022/05/07 02:54:42;;;;;;;5.38;2.40;;;;;;;12.85;47.71;95105.28;4140748;28;20065;-53
2022/05/07 02:56:44;;;;;;;5.75;2.40;;;;;;;12.87;47.52;95107.75;4142305;28;20061;-52
2022/05/07 02:58:46;;;;;;;4.88;2.45;;;;;;;12.86;47.31;95103.47;4142403;28;20061;-53
2022/05/07 03:00:49;;;;;;;6.93;2.80;;;;;;;12.86;47.38;95106.94;4142502;28;20053;-53
2022/05/07 03:02:51;;;;;;;6.07;2.75;;;;;;;12.85;47.60;95097.38;4141743;28;20057;-52
2022/05/07 03:04:53;;;;;;;6.13;2.63;;;;;;;12.84;47.16;95103.66;4141829;28;20123;-52
2022/05/07 03:06:55;;;;;;;5.72;2.65;;;;;;;12.86;47.29;95103.47;4142423;28;20199;-53
2022/05/07 03:08:57;;;;;;;4.25;2.45;;;;;;;12.86;47.77;95106.94;4140404;28;20111;-55
2022/05/07 03:10:58;;;;;;;6.00;2.50;;;;;;;12.83;47.42;95106.44;4142067;28;20080;-54
2022/05/07 03:13:00;;;;;;;7.50;2.58;;;;;;;12.84;47.35;95101.03;4141997;28;20115;-53
2022/05/07 03:15:02;;;;;;;6.22;3.10;;;;;;;12.85;47.68;95101.84;4142385;28;20062;-53
2022/05/07 03:17:04;;;;;;;5.78;2.60;;;;;;;12.88;47.83;95109.38;4142044;28;20863;-53
2022/05/07 03:19:09;;;;;;;9.88;2.50;;;;;;;12.86;48.12;95106.94;4141120;28;20061;-54
2022/05/07 03:21:11;;;;;;;7.28;2.53;;;;;;;12.86;48.14;95106.09;4132354;28;20057;-54
2022/05/07 03:23:13;;;;;;;8.90;2.78;;;;;;;12.84;48.15;95108.06;4140771;28;20355;-55
2022/05/07 03:25:15;;;;;;;5.78;2.67;;;;;;;12.87;47.94;95105.13;4142151;28;20054;-53
2022/05/07 03:27:16;;;;;;;10.05;3.00;;;;;;;12.84;48.19;95105.44;4142507;28;20420;-52
2022/05/07 03:29:18;;;;;;;6.88;2.60;;;;;;;12.83;48.30;95104.63;4142032;28;20054;-55
2022/05/07 03:31:20;;;;;;;4.70;2.38;;;;;;;12.79;48.16;95107.72;4140825;28;20050;-54
2022/05/07 03:33:21;;;;;;;3.90;2.40;;;;;;;12.80;48.57;95104.09;4141674;28;20529;-52
2022/05/07 03:35:23;;;;;;;5.40;2.38;;;;;;;12.82;48.55;95108.25;4142337;28;20132;-57
2022/05/07 03:37:26;;;;;;;10.57;2.97;;;;;;;12.84;47.96;95106.28;4142055;28;20049;-53
2022/05/07 03:39:28;;;;;;;5.13;2.40;;;;;;;12.81;48.21;95106.59;4140631;28;20134;-55
2022/05/07 03:41:30;;;;;;;5.68;2.40;;;;;;;12.83;48.46;95101.16;4141995;28;20107;-53
2022/05/07 03:43:35;;;;;;;5.65;2.92;;;;;;;12.84;48.47;95102.81;4142305;28;20363;-50
2022/05/07 03:45:37;;;;;;;4.40;2.70;;;;;;;12.83;48.61;95103.81;4141812;28;20107;-52
2022/05/07 03:47:39;;;;;;;5.85;2.58;;;;;;;12.84;49.12;95105.44;4140361;28;20053;-53
2022/05/07 03:49:41;;;;;;;8.00;2.83;;;;;;;12.80;48.45;95109.38;4141390;28;20050;-53
2022/05/07 03:54:03;;;;;;;6.00;2.70;;;;;;;12.40;49.26;95122.28;4140515;28;20128;-54
2022/05/07 03:56:06;;;;;;;9.40;2.80;;;;;;;12.33;49.75;95116.03;4141963;28;20533;-55
2022/05/07 03:58:15;;;;;;;4.88;3.08;;;;;;;12.38;50.52;95115.53;4141957;28;20069;-54
2022/05/07 04:00:17;;;;;;;5.15;3.03;;;;;;;12.35;50.06;95121.94;4141665;28;20056;-51
2022/05/07 04:02:18;;;;;;;7.10;3.22;;;;;;;12.41;50.08;95120.47;4142043;28;20131;-55
2022/05/07 04:04:20;;;;;;;6.65;3.00;;;;;;;12.47;49.85;95127.72;4141755;28;20054;-55
2022/05/07 04:06:22;;;;;;;3.97;2.67;;;;;;;12.57;49.85;95130.22;4142172;28;20057;-51
2022/05/07 04:08:24;;;;;;;6.75;3.05;;;;;;;12.69;49.36;95135.00;4140173;28;20463;-53
2022/05/07 04:10:25;;;;;;;7.57;3.13;;;;;;;12.77;49.68;95131.56;4142072;28;20525;-58
2022/05/07 04:12:27;;;;;;;7.25;2.63;;;;;;;12.86;49.80;95130.59;4141882;28;20498;-55
2022/05/07 04:14:29;;;;;;;7.25;3.10;;;;;;;12.95;48.93;95133.22;4141526;28;20108;-54
2022/05/07 04:16:30;;;;;;;7.60;3.10;;;;;;;13.09;49.21;95136.03;4141914;28;20419;-53
2022/05/07 04:18:35;;;;;;;8.68;3.63;;;;;;;13.30;49.26;95135.56;4141513;28;20057;-53
2022/05/07 04:20:37;;;;;;;7.43;3.22;;;;;;;13.38;49.08;95140.03;4141333;28;20117;-54
2022/05/07 04:22:39;;;;;;;7.13;3.50;;;;;;;13.43;49.21;95137.69;4141637;28;20125;-53
2022/05/07 04:24:41;;;;;;;4.63;3.22;;;;;;;13.44;49.27;95138.53;4143537;28;20054;-53
2022/05/07 04:26:43;;;;;;;6.40;3.58;;;;;;;13.52;49.15;95136.69;4145095;28;20512;-54
2022/05/07 04:28:45;;;;;;;7.93;3.40;;;;;;;13.58;48.78;95135.22;4144708;28;20112;-53
2022/05/07 04:30:46;;;;;;;5.97;3.38;;;;;;;13.64;48.60;95136.38;4144512;28;20111;-54
2022/05/07 04:32:49;;;;;;;5.47;3.42;;;;;;;13.69;48.26;95129.59;4144429;28;20418;-53
2022/05/07 04:34:50;;;;;;;6.35;3.45;;;;;;;13.72;47.87;95131.06;4144430;28;20104;-51
2022/05/07 04:36:52;;;;;;;14.57;2.95;;;;;;;13.78;48.09;95133.03;4144866;28;20107;-54
2022/05/07 04:38:54;;;;;;;8.57;3.88;;;;;;;13.44;48.21;95134.09;4142890;28;20050;-53
2022/05/07 04:40:55;;;;;;;7.82;2.78;;;;;;;13.39;47.95;95130.31;4144379;28;20054;-52
2022/05/07 04:42:57;;;;;;;6.55;3.05;;;;;;;13.48;47.87;95129.31;4144476;28;20046;-55
2022/05/07 04:44:59;;;;;;;6.40;3.03;;;;;;;13.61;48.14;95134.06;4144115;28;20058;-53
2022/05/07 04:47:00;;;;;;;6.97;3.42;;;;;;;13.73;47.79;95135.38;4144651;28;20132;-53
2022/05/07 04:49:02;;;;;;;7.15;3.15;;;;;;;13.84;48.18;95134.19;4130390;28;20579;-54
2022/05/07 04:51:04;;;;;;;7.38;2.63;;;;;;;13.84;48.03;95139.47;4136896;28;20076;-54
2022/05/07 04:53:26;;;;;;;7.07;3.30;;;;;;;13.93;47.59;95139.25;4143071;28;20148;-54
2022/05/07 04:55:28;;;;;;;12.82;3.55;;;;;;;13.40;48.06;95134.56;4144238;28;20200;-53
2022/05/07 04:57:30;;;;;;;7.60;3.15;;;;;;;13.30;48.59;95145.28;4144124;28;20049;-56
2022/05/07 04:59:32;;;;;;;7.80;3.22;;;;;;;13.40;48.39;95142.47;4144291;28;20049;-55
2022/05/07 05:01:33;;;;;;;6.70;3.03;;;;;;;13.49;48.92;95138.84;4143939;28;20202;-55
2022/05/07 05:03:35;;;;;;;7.70;3.97;;;;;;;13.66;48.05;95137.84;4144022;28;20069;-53
2022/05/07 05:05:38;;;;;;;4.45;3.00;;;;;;;13.79;48.37;95139.97;4144197;28;20112;-55
2022/05/07 05:07:40;;;;;;;5.22;2.90;;;;;;;13.76;47.69;95142.91;4144096;28;20103;-53
2022/05/07 05:09:41;;;;;;;5.80;2.95;;;;;;;13.71;48.13;95132.06;4142724;28;20128;-58
2022/05/07 05:11:43;;;;;;;6.13;3.00;;;;;;;13.71;48.68;95134.72;4143957;28;20049;-54
2022/05/07 05:13:45;;;;;;;5.85;2.78;;;;;;;13.79;48.26;95142.59;4143621;28;20050;-55
2022/05/07 05:15:47;;;;;;;5.85;3.38;;;;;;;13.85;48.31;95136.66;4143829;28;20053;-54
2022/05/07 05:17:48;;;;;;;9.57;3.53;;;;;;;13.97;47.60;95141.56;4143713;28;20058;-54
2022/05/07 05:19:50;;;;;;;8.25;3.25;;;;;;;14.05;48.40;95134.47;4143655;28;20068;-52
2022/05/07 05:21:52;;;;;;;7.47;3.78;;;;;;;14.06;48.11;95140.53;4142249;28;20058;-55
2022/05/07 05:23:54;;;;;;;8.50;3.17;;;;;;;13.73;47.92;95138.00;4141331;28;20100;-55
2022/05/07 05:25:56;;;;;;;7.55;3.75;;;;;;;13.83;48.51;95140.44;4143690;28;20601;-53
2022/05/07 05:27:58;;;;;;;7.40;3.97;;;;;;;13.87;48.67;95144.38;4143873;28;20445;-54
2022/05/07 05:29:59;;;;;;;6.30;3.95;;;;;;;13.44;48.63;95149.88;4143842;28;20058;-54
2022/05/07 05:32:02;;;;;;;9.55;4.03;;;;;;;13.05;50.48;95147.84;4143287;28;20050;-53
2022/05/07 05:34:04;;;;;;;8.30;3.58;;;;;;;13.12;50.57;95145.41;4142905;28;20058;-55
2022/05/07 05:36:06;;;;;;;6.43;3.72;;;;;;;13.25;50.27;95140.47;4143519;28;20153;-53
2022/05/07 05:38:08;;;;;;;6.72;3.22;;;;;;;13.42;49.98;95146.59;4142026;28;20069;-52
2022/05/07 05:40:10;;;;;;;11.70;3.63;;;;;;;13.40;50.27;95153.00;4143516;28;20054;-52
2022/05/07 05:42:12;;;;;;;6.60;3.85;;;;;;;13.44;49.49;95144.63;4143226;28;20149;-54
2022/05/07 05:44:14;;;;;;;5.03;3.50;;;;;;;13.35;49.95;95142.97;4143722;28;20050;-55
2022/05/07 05:46:15;;;;;;;5.40;4.00;;;;;;;13.27;50.48;95146.41;4143552;28;20054;-52
2022/05/07 05:48:17;;;;;;;9.38;4.50;;;;;;;13.15;50.79;95144.25;4142901;28;20133;-53
2022/05/07 05:50:20;;;;;;;4.97;3.53;;;;;;;13.31;50.75;95146.91;4143342;28;20108;-52
2022/05/07 05:52:21;;;;;;;7.03;3.30;;;;;;;13.42;49.89;95143.97;4143349;28;20511;-51
2022/05/07 05:54:24;;;;;;;8.60;3.67;;;;;;;13.34;50.21;95148.41;4141609;28;20046;-51
2022/05/07 05:56:26;;;;;;;9.40;3.63;;;;;;;13.30;50.38;95153.16;4141857;28;20145;-52
2022/05/07 05:58:35;;;;;;;7.05;3.30;;;;;;;13.61;49.99;95147.22;4143206;28;20784;-54
2022/05/07 06:00:36;;;;;;;6.75;3.67;;;;;;;13.56;50.07;95152.19;4143306;28;20050;-53
2022/05/07 06:02:38;;;;;;;8.18;3.72;;;;;;;13.71;49.74;95150.50;4143055;28;20135;-55
2022/05/07 06:04:40;;;;;;;8.25;3.45;;;;;;;13.86;49.22;95146.19;4142804;28;20253;-53
2022/05/07 06:06:42;;;;;;;5.18;3.65;;;;;;;13.98;48.80;95153.72;4143363;28;20062;-50
2022/05/07 06:08:44;;;;;;;6.35;3.55;;;;;;;13.82;49.47;95154.59;4141408;28;20099;-51
2022/05/07 06:10:46;;;;;;;6.43;3.60;;;;;;;13.76;49.47;95150.81;4142974;28;20050;-50
2022/05/07 06:12:49;;;;;;;6.88;3.70;;;;;;;13.98;49.55;95151.94;4142951;28;20062;-52
2022/05/07 06:14:54;;;;;;;10.20;3.95;;;;;;;14.18;49.27;95154.19;4142799;28;20058;-54
2022/05/07 06:16:56;;;;;;;6.97;4.18;;;;;;;14.55;48.79;95150.91;4143101;28;20112;-52
2022/05/07 06:18:58;;;;;;;6.88;3.50;;;;;;;14.87;47.96;95155.19;4142786;28;20138;-54
2022/05/07 06:21:02;;;;;;;6.95;3.67;;;;;;;15.13;47.32;95146.94;4142948;28;20080;-51
2022/05/07 06:23:04;;;;;;;7.65;4.03;;;;;;;15.36;46.05;95148.75;4139902;28;20049;-54
2022/05/07 06:27:28;;;;;;;6.70;3.45;;;;;;;15.43;45.74;95149.69;4134660;28;20054;-55
2022/05/07 06:29:30;;;;;;;5.70;3.42;;;;;;;15.43;45.98;95143.59;4126765;28;20112;-52
2022/05/07 06:31:32;;;;;;;10.60;5.03;;;;;;;15.19;46.13;95148.06;4126487;28;20054;-54
2022/05/07 06:33:33;;;;;;;9.80;4.10;;;;;;;15.24;47.24;95142.25;4126080;28;20062;-54
2022/05/07 06:35:35;;;;;;;7.80;3.78;;;;;;;15.31;46.29;95144.00;4126703;28;20050;-51
2022/05/07 06:37:39;;;;;;;8.10;3.53;;;;;;;15.39;46.48;95150.22;4126447;28;20519;-52
2022/05/07 06:39:40;;;;;;;7.95;4.15;;;;;;;15.67;46.58;95151.28;4125060;28;20053;-50
2022/05/07 06:41:42;;;;;;;8.27;3.63;;;;;;;15.82;45.73;95146.06;4126357;28;20108;-50
2022/05/07 06:43:44;;;;;;;8.18;3.88;;;;;;;16.03;45.54;95147.19;4131315;28;20359;-54
2022/05/07 06:45:45;;;;;;;9.48;3.58;;;;;;;16.25;45.19;95146.25;4137191;28;20108;-53
2022/05/07 06:47:48;;;;;;;6.18;3.78;;;;;;;16.09;44.55;95143.78;4142380;28;20041;-53
2022/05/07 06:49:49;;;;;;;5.32;3.90;;;;;;;16.12;45.09;95143.44;4142441;28;20115;-51
2022/05/07 06:51:51;;;;;;;7.93;3.83;;;;;;;15.80;45.19;95141.97;4142462;28;20060;-53
2022/05/07 06:53:53;;;;;;;7.65;3.80;;;;;;;15.76;45.58;95141.50;4141232;28;20120;-51
2022/05/07 06:55:54;;;;;;;7.95;3.42;;;;;;;15.91;45.57;95142.31;4141921;28;20057;-53
2022/05/07 06:57:58;;;;;;;9.10;3.70;;;;;;;15.76;46.04;95133.56;4140304;28;20046;-53
2022/05/07 07:00:20;;;;;;;8.23;3.97;;;;;;;15.79;46.21;95132.38;4134733;28;20108;-54
2022/05/07 07:02:22;;;;;;;6.20;3.90;;;;;;;16.02;45.48;95135.75;4126474;28;20058;-53
2022/05/07 07:04:25;;;;;;;11.63;4.30;;;;;;;16.21;46.23;95133.59;4125983;28;20057;-51
2022/05/07 07:06:27;;;;;;;8.73;3.80;;;;;;;16.32;45.14;95133.94;4126146;28;20511;-53
2022/05/07 07:08:29;;;;;;;9.77;3.45;;;;;;;16.19;44.85;95131.13;4124903;28;20072;-53
2022/05/07 07:10:31;;;;;;;13.00;4.38;;;;;;;16.07;45.19;95127.31;4126328;28;20121;-52
2022/05/07 07:12:38;;;;;;;9.63;3.85;;;;;;;16.25;45.00;95124.28;4126296;28;20433;-52
2022/05/07 07:14:41;;;;;;;13.82;4.22;;;;;;;16.46;45.44;95111.13;4126105;28;20058;-54
2022/05/07 07:16:43;;;;;;;5.90;3.20;;;;;;;16.50;44.33;95119.53;4126255;28;20116;-54
2022/05/07 07:18:44;;;;;;;7.38;3.55;;;;;;;16.49;44.65;95121.34;4125793;28;20128;-54
2022/05/07 07:20:49;;;;;;;8.10;3.67;;;;;;;16.50;44.74;95112.41;4126432;28;20050;-52
2022/05/07 07:22:51;;;;;;;5.60;3.60;;;;;;;16.58;44.63;95109.66;4126725;28;20255;-53
2022/05/07 07:24:53;;;;;;;7.70;3.70;;;;;;;16.64;44.33;95108.06;4134392;28;20046;-54
2022/05/07 07:26:59;;;;;;;7.68;3.63;;;;;;;16.77;44.60;95108.22;4142264;28;20107;-52
2022/05/07 07:29:02;;;;;;;6.18;3.70;;;;;;;16.47;43.96;95111.94;4142168;28;20053;-53
2022/05/07 07:31:03;;;;;;;6.60;3.97;;;;;;;16.18;44.79;95108.34;4142325;28;20387;-52
2022/05/07 07:33:06;;;;;;;8.77;3.55;;;;;;;16.34;45.34;95109.97;4141523;28;20399;-53
2022/05/07 07:35:09;;;;;;;6.72;3.13;;;;;;;16.57;44.21;95107.19;4142260;28;20058;-49
2022/05/07 07:37:10;;;;;;;8.57;3.40;;;;;;;16.82;44.30;95104.22;4142265;28;20112;-54
2022/05/07 07:39:12;;;;;;;11.32;3.63;;;;;;;17.01;44.21;95100.97;4140980;28;20172;-53
2022/05/07 07:41:14;;;;;;;8.90;3.60;;;;;;;16.96;43.79;95098.88;4142268;28;20418;-56
2022/05/07 07:43:17;;;;;;;6.32;3.67;;;;;;;17.15;43.20;95110.66;4142128;28;20054;-53
2022/05/07 07:47:57;;;;;;;8.30;3.47;;;;;;;17.22;43.16;95107.28;4140020;28;20152;-52
2022/05/07 07:49:59;;;;;;;6.38;3.67;;;;;;;16.85;43.02;95095.94;4125979;28;20065;-50
2022/05/07 07:52:02;;;;;;;8.85;4.20;;;;;;;16.64;44.34;95097.50;4139826;28;20052;-50
2022/05/07 07:54:10;;;;;;;7.95;3.67;;;;;;;16.34;44.14;95107.31;4140986;28;20241;-51
2022/05/07 07:56:12;;;;;;;5.10;3.35;;;;;;;16.12;44.99;95099.31;4144956;28;20116;-48
2022/05/07 07:58:14;;;;;;;5.25;3.50;;;;;;;15.90;45.94;95106.34;4144905;28;20049;-53
2022/05/07 08:00:16;;;;;;;8.27;3.90;;;;;;;15.59;45.86;95101.19;4144727;28;20118;-52
2022/05/07 08:02:18;;;;;;;7.03;4.20;;;;;;;15.74;46.28;95101.22;4144976;28;20073;-53
2022/05/07 08:04:21;;;;;;;7.70;3.47;;;;;;;15.63;46.64;95104.28;4145017;28;20060;-53
2022/05/07 08:06:23;;;;;;;6.63;3.60;;;;;;;15.61;47.03;95106.28;4145179;28;20061;-54
2022/05/07 08:13:05;;;;;;;5.10;3.53;;;;;;;16.10;46.46;95103.97;4144935;28;20057;-54
2022/05/07 08:15:08;;;;;;;5.40;3.55;;;;;;;16.38;45.68;95104.13;4144744;28;20088;-53
2022/05/07 08:17:09;;;;;;;7.07;4.07;;;;;;;16.68;45.03;95098.75;4144668;28;20128;-50
2022/05/07 08:19:12;;;;;;;7.03;3.80;;;;;;;16.92;44.75;95099.44;4144348;28;20106;-53
2022/05/07 08:21:14;;;;;;;8.50;3.60;;;;;;;16.87;44.09;95101.84;4144637;28;20388;-51
2022/05/07 08:23:15;;;;;;;10.57;3.72;;;;;;;16.76;43.93;95096.00;4143037;28;20112;-51
2022/05/07 08:25:17;;;;;;;6.55;3.70;;;;;;;16.62;44.21;95104.78;4143363;28;20123;-52
2022/05/07 08:27:19;;;;;;;5.03;3.25;;;;;;;16.67;43.89;95101.59;4144470;28;20647;-55
2022/05/07 08:29:21;;;;;;;10.38;3.90;;;;;;;16.79;44.08;95100.09;4144694;28;20108;-51
2022/05/07 08:31:23;;;;;;;5.63;3.45;;;;;;;16.96;43.55;95108.66;4144646;28;20075;-54
2022/05/07 08:33:25;;;;;;;5.50;3.08;;;;;;;17.11;42.77;95101.47;4144327;28;20394;-50
2022/05/07 08:35:27;;;;;;;6.85;3.35;;;;;;;17.37;43.12;95103.53;4144468;28;20487;-51
2022/05/07 08:37:29;;;;;;;6.90;3.35;;;;;;;17.61;42.09;95094.34;4144521;28;20046;-51
2022/05/07 08:39:31;;;;;;;6.50;3.13;;;;;;;17.60;41.71;95100.66;4143113;28;20111;-52
2022/05/07 08:41:33;;;;;;;6.72;3.47;;;;;;;17.38;41.63;95099.06;4144713;28;20081;-54
2022/05/07 08:43:38;;;;;;;5.47;3.30;;;;;;;17.60;41.73;95103.31;4144555;28;20053;-50
2022/05/07 08:45:41;;;;;;;5.90;3.15;;;;;;;17.68;41.19;95093.56;4144928;28;20117;-48
2022/05/07 08:47:43;;;;;;;5.70;3.35;;;;;;;17.89;41.31;95100.66;4142183;28;20066;-52
2022/05/07 08:49:45;;;;;;;6.30;2.80;;;;;;;17.82;41.15;95097.97;4128001;28;20124;-51
2022/05/07 08:51:48;;;;;;;6.70;3.15;;;;;;;17.68;40.52;95093.56;4142888;28;20053;-50
2022/05/07 08:53:53;;;;;;;3.88;2.45;;;;;;;17.74;40.72;95108.69;4141186;28;20612;-52
2022/05/07 08:55:55;;;;;;;6.90;3.40;;;;;;;17.74;40.50;95098.09;4144319;28;20058;-51
2022/05/07 08:57:58;;;;;;;4.90;2.70;;;;;;;17.87;41.13;95103.50;4144304;28;20053;-53
2022/05/07 08:59:59;;;;;;;8.30;2.97;;;;;;;17.90;41.00;95095.19;4144369;28;20387;-54
2022/05/07 09:02:03;;;;;;;3.80;2.60;;;;;;;18.05;40.51;95094.22;4144333;28;20086;-54
2022/05/07 09:04:09;;;;;;;4.55;2.90;;;;;;;17.91;40.04;95094.16;4143886;28;20499;-52
2022/05/07 09:06:19;;;;;;;4.82;2.97;;;;;;;18.08;40.57;95093.84;4143218;28;20180;-53
2022/05/07 09:08:26;;;;;;;4.75;2.55;;;;;;;18.18;40.04;95089.84;4142702;28;20050;-55
2022/05/07 09:10:31;;;;;;;9.82;3.25;;;;;;;18.06;39.99;95090.59;4143956;28;20065;-53
2022/05/07 09:12:33;;;;;;;3.88;2.83;;;;;;;18.13;40.03;95081.66;4142175;28;20127;-56
2022/05/07 09:14:35;;;;;;;5.03;2.92;;;;;;;18.16;39.56;95083.09;4143766;28;20119;-52
2022/05/07 09:16:40;;;;;;;9.43;3.65;;;;;;;17.89;39.98;95085.59;4142268;28;20054;-54
2022/05/07 09:18:48;;;;;;;4.80;2.80;;;;;;;17.94;39.84;95085.84;4143541;28;20233;-54
2022/05/07 09:21:16;;;;;;;5.70;2.72;;;;;;;17.92;39.72;95085.22;4142970;28;20558;-53
2022/05/07 09:23:22;;;;;;;4.90;2.42;;;;;;;18.08;38.90;95077.94;4140703;28;20192;-53
2022/05/07 09:25:26;;;;;;;8.70;2.80;;;;;;;18.17;38.46;95080.22;4132582;28;20418;-53
2022/05/07 09:27:28;;;;;;;6.63;2.75;;;;;;;18.20;37.99;95071.91;4142636;28;20456;-53
2022/05/07 09:29:30;;;;;;;4.35;2.70;;;;;;;17.98;37.45;95076.47;4143902;28;20352;-53
2022/05/07 09:31:34;;;;;;;3.97;2.45;;;;;;;17.92;37.76;95079.91;4143985;28;20263;-54
2022/05/07 09:33:35;;;;;;;6.68;3.05;;;;;;;17.81;38.10;95077.78;4143204;28;20064;-53
2022/05/07 09:35:49;;;;;;;4.28;2.70;;;;;;;18.03;37.94;95070.59;4143498;28;20057;-55
2022/05/07 09:37:57;;;;;;;6.32;2.47;;;;;;;18.36;37.40;95061.97;4143299;28;20112;-54
2022/05/07 09:40:03;;;;;;;5.03;2.78;;;;;;;18.34;37.44;95058.69;4143617;28;20061;-53
2022/05/07 09:42:07;;;;;;;5.47;2.78;;;;;;;18.08;37.62;95057.56;4143510;28;20434;-50
2022/05/07 09:44:09;;;;;;;4.60;2.50;;;;;;;18.04;37.87;95056.31;4143065;28;20054;-54
2022/05/07 09:46:11;;;;;;;6.70;2.60;;;;;;;18.18;37.71;95049.25;4143460;28;20061;-51
2022/05/07 09:48:13;;;;;;;6.68;2.97;;;;;;;17.76;37.89;95049.19;4141023;28;20160;-52
2022/05/07 09:50:23;;;;;;;4.97;2.72;;;;;;;17.96;38.47;95044.06;4128222;28;20486;-53
2022/05/07 09:52:25;;;;;;;7.50;2.78;;;;;;;17.97;38.76;95045.66;4143298;28;20133;-54
2022/05/07 09:59:12;;;;;;;6.28;2.85;;;;;;;18.62;38.38;95043.47;4143349;28;20547;-49
2022/05/07 10:01:39;;;;;;;6.63;3.03;;;;;;;19.01;37.40;95038.47;4143232;28;20061;-53